Terminal Aerodrome Forecast
Issued by NWS

Home | Current Version | Previous Version | Text Only | Print | Product List | Glossary On
Versions: 1 2 3 4 5 6 7 8 9 10 11 12 13 14 15 16 17 18 19 20 21 22 23 24 25 26 27
000
FTUS44 KOUN 281147
TAFHBR
TAF
KHBR 281147Z 2812/0112 21014KT P6SM BKN150
     FM281500 21015G25KT P6SM BKN150
     FM281830 21025G35KT P6SM BKN150
     FM010200 26015KT P6SM SCT150
     FM010600 32015G25KT P6SM FEW040 SCT150=

USA.gov is the U.S. government's official web portal to all federal, state and local government web resources and services.